Time;durP1;ratioP1;P1;durP2;ratioP2;P2;SDS_P1;SDS_P2;PMS_P1;PMS_P2;Temp;Humidity;BMP_temperature;BMP_pressure;BME280_temperature;BME280_humidity;BME280_pressure;Samples;Min_cycle;Max_cycle;Signal;HPM_P1;HPM_P2
2022/07/25 00:02:17;;;;;;;11.00;3.80;;;;;;;15.81;60.90;100509.02;2030698;86;29692;-66
2022/07/25 00:05:20;;;;;;;4.80;3.50;;;;;;;15.77;61.12;100507.03;2085185;85;27688;-64
2022/07/25 00:08:22;;;;;;;5.22;4.17;;;;;;;15.67;61.14;100511.30;2029017;87;28640;-67
2022/07/25 00:11:24;;;;;;;7.22;4.10;;;;;;;15.67;61.14;100511.30;2081862;85;31465;-67
2022/07/25 00:14:26;;;;;;;8.88;4.33;;;;;;;15.65;61.35;100515.94;2081836;85;33406;-63
2022/07/25 00:17:28;;;;;;;5.67;3.95;;;;;;;15.60;61.49;100514.06;2027034;87;30992;-65
2022/07/25 00:20:31;;;;;;;6.92;3.95;;;;;;;15.56;61.69;100507.97;2082208;85;27691;-67
2022/07/25 00:23:33;;;;;;;6.80;3.92;;;;;;;15.53;61.97;100511.37;2081857;85;29095;-65
2022/07/25 00:26:35;;;;;;;4.15;3.72;;;;;;;15.50;61.90;100504.36;2061097;86;31411;-64
2022/07/25 00:29:37;;;;;;;5.58;3.62;;;;;;;15.43;62.43;100501.67;2060649;86;33024;-65
2022/07/25 00:32:38;;;;;;;6.35;4.22;;;;;;;15.38;62.44;100507.39;2060803;86;30787;-62
2022/07/25 00:35:39;;;;;;;8.90;4.00;;;;;;;15.38;62.44;100507.39;2060884;86;27642;-67
2022/07/25 00:38:41;;;;;;;6.78;4.55;;;;;;;15.36;62.44;100505.27;2061053;86;29040;-66
2022/07/25 00:41:43;;;;;;;11.68;5.25;;;;;;;15.33;62.68;100505.00;2060993;86;32234;-66
2022/07/25 00:44:45;;;;;;;10.00;4.75;;;;;;;15.33;62.88;100498.72;2081807;85;33001;-63
2022/07/25 00:47:46;;;;;;;9.38;4.45;;;;;;;15.31;63.17;100493.44;2047403;86;31833;-66
2022/07/25 00:50:49;;;;;;;6.03;4.50;;;;;;;15.29;63.13;100497.22;2082315;85;27711;-67
2022/07/25 00:53:53;;;;;;;7.25;4.70;;;;;;;15.26;63.13;100492.86;2082068;85;28873;-67
2022/07/25 00:56:56;;;;;;;;;;;;;;;15.25;63.19;100488.93;2029504;87;33364;-66
2022/07/25 00:59:58;;;;;;;11.22;4.40;;;;;;;15.24;63.38;100496.14;2027019;87;33008;-65
2022/07/25 01:02:59;;;;;;;9.28;4.85;;;;;;;15.21;63.53;100493.67;2081993;85;30366;-67
2022/07/25 01:06:01;;;;;;;8.33;4.80;;;;;;;15.19;63.59;100492.91;2027408;87;27699;-67
2022/07/25 01:09:03;;;;;;;7.97;4.78;;;;;;;15.18;63.41;100495.22;2089208;84;28646;-67
2022/07/25 01:12:05;;;;;;;8.13;5.25;;;;;;;15.16;63.50;100493.95;2042694;87;31083;-66
2022/07/25 01:15:09;;;;;;;9.65;4.60;;;;;;;15.06;63.59;100480.70;2095129;84;33511;-61
2022/07/25 01:18:10;;;;;;;6.08;4.70;;;;;;;15.08;63.68;100487.33;2043040;86;30396;-61
2022/07/25 01:21:13;;;;;;;7.30;4.85;;;;;;;15.08;63.68;100487.33;2095488;84;27629;-62
2022/07/25 01:24:15;;;;;;;16.00;5.12;;;;;;;15.04;63.90;100488.02;2095166;85;29370;-64
2022/07/25 01:27:16;;;;;;;8.55;4.65;;;;;;;15.01;64.03;100482.35;2080474;85;31025;-67
2022/07/25 01:30:20;;;;;;;9.35;4.47;;;;;;;14.98;64.03;100478.50;2080323;85;33325;-61
2022/07/25 01:33:22;;;;;;;10.57;4.70;;;;;;;14.98;64.03;100478.50;2080636;85;30610;-65
2022/07/25 01:36:24;;;;;;;8.90;4.35;;;;;;;14.95;64.13;100476.50;2078432;85;27677;-64
2022/07/25 01:39:25;;;;;;;9.18;5.40;;;;;;;14.92;64.13;100475.34;2080072;85;28667;-64
2022/07/25 01:42:27;;;;;;;14.47;5.00;;;;;;;14.89;64.31;100466.98;2080062;85;32371;-66
2022/07/25 01:45:29;;;;;;;10.95;5.10;;;;;;;14.87;64.34;100460.81;2080529;85;33632;-67
2022/07/25 01:48:30;;;;;;;7.50;4.50;;;;;;;14.90;64.47;100455.19;2059080;85;29688;-67
2022/07/25 01:51:31;;;;;;;9.68;4.80;;;;;;;14.92;64.26;100455.96;2095492;84;27603;-67
2022/07/25 01:54:32;;;;;;;8.10;5.20;;;;;;;14.92;64.28;100449.22;2120174;83;28618;-66
2022/07/25 01:57:33;;;;;;;5.80;4.50;;;;;;;14.89;64.42;100452.99;2076761;85;31903;-66
2022/07/25 02:00:35;;;;;;;6.08;5.08;;;;;;;14.86;64.35;100446.45;2110929;84;33007;-67
2022/07/25 02:03:36;;;;;;;11.43;4.85;;;;;;;14.84;64.44;100448.38;2131199;83;29630;-65
2022/07/25 02:06:40;;;;;;;5.25;4.20;;;;;;;14.81;64.49;100445.87;2131353;83;27753;-67
2022/07/25 02:09:40;;;;;;;6.80;4.42;;;;;;;14.77;64.60;100449.75;2066534;85;28716;-66
2022/07/25 02:12:42;;;;;;;6.12;4.40;;;;;;;14.72;64.73;100448.71;2100955;84;31944;-67
2022/07/25 02:15:43;;;;;;;7.87;5.03;;;;;;;14.69;64.83;100449.38;2117310;83;32909;-68
2022/07/25 02:18:44;;;;;;;7.03;5.30;;;;;;;14.65;64.80;100447.80;2033556;85;30416;-68
2022/07/25 02:21:46;;;;;;;12.58;6.10;;;;;;;14.62;64.97;100443.48;2081982;85;28287;-66
2022/07/25 02:24:47;;;;;;;7.55;5.03;;;;;;;14.58;65.26;100437.89;2082167;85;29561;-69
2022/07/25 02:27:48;;;;;;;7.80;5.47;;;;;;;14.55;65.31;100438.97;2082348;85;31007;-68
2022/07/25 02:30:49;;;;;;;10.78;5.45;;;;;;;14.53;65.48;100438.19;2027485;87;33726;-67
2022/07/25 02:33:51;;;;;;;7.55;5.22;;;;;;;14.52;65.48;100441.85;2082111;85;30389;-68
2022/07/25 02:36:52;;;;;;;6.55;5.15;;;;;;;14.50;65.55;100442.43;2082223;85;27706;-68
2022/07/25 02:39:54;;;;;;;8.03;5.35;;;;;;;14.49;65.74;100442.54;2027043;87;28955;-68
2022/07/25 02:42:55;;;;;;;9.13;5.90;;;;;;;14.46;65.82;100450.35;2082194;85;31012;-67
2022/07/25 02:45:56;;;;;;;6.62;5.25;;;;;;;14.45;65.75;100454.01;2027362;87;33710;-68
2022/07/25 02:48:58;;;;;;;9.15;5.50;;;;;;;14.43;65.77;100444.66;2082108;85;29650;-66
2022/07/25 02:51:59;;;;;;;8.60;5.33;;;;;;;14.43;65.88;100445.15;2082179;85;27713;-68
2022/07/25 02:55:00;;;;;;;8.65;5.22;;;;;;;14.40;65.90;100438.10;2027549;87;29399;-67
2022/07/25 02:58:02;;;;;;;6.65;4.85;;;;;;;14.39;65.93;100436.41;2082090;85;31016;-67
2022/07/25 03:01:03;;;;;;;7.42;5.42;;;;;;;14.38;65.94;100439.17;2027331;87;33006;-67
2022/07/25 03:04:04;;;;;;;10.32;5.15;;;;;;;14.37;65.95;100436.97;2082174;85;29628;-66
2022/07/25 03:07:06;;;;;;;8.05;5.03;;;;;;;14.37;65.99;100441.48;2027477;87;27650;-67
2022/07/25 03:10:10;;;;;;;8.78;5.00;;;;;;;14.35;66.01;100437.55;2081797;84;28631;-66
2022/07/25 03:13:11;;;;;;;9.83;5.62;;;;;;;14.34;66.08;100432.23;2082061;85;31061;-66
2022/07/25 03:16:12;;;;;;;11.12;4.90;;;;;;;14.33;66.17;100439.47;2027337;87;33028;-66
2022/07/25 03:19:13;;;;;;;5.90;5.03;;;;;;;14.32;66.17;100441.78;2070802;85;29616;-66
2022/07/25 03:22:39;;;;;;;5.47;4.42;;;;;;;14.34;66.31;100437.63;2012396;87;27712;-67
2022/07/25 03:25:49;;;;;;;6.35;5.08;;;;;;;14.34;66.41;100429.08;2081872;85;29581;-67
2022/07/25 03:28:56;;;;;;;8.23;5.28;;;;;;;14.34;66.47;100426.84;2081853;85;31916;-66
2022/07/25 03:31:58;;;;;;;7.30;4.92;;;;;;;14.35;66.49;100423.19;2081861;85;32970;-67
2022/07/25 03:34:59;;;;;;;5.90;4.78;;;;;;;14.39;66.70;100435.52;2081696;85;29793;-65
2022/07/25 03:38:03;;;;;;;7.15;5.50;;;;;;;14.42;66.74;100427.24;2027158;87;27693;-67
2022/07/25 03:41:05;;;;;;;6.67;4.58;;;;;;;14.48;66.88;100428.67;2058926;85;28805;-66
2022/07/25 03:44:07;;;;;;;16.40;6.25;;;;;;;14.53;66.87;100422.52;2026916;87;31780;-67
2022/07/25 03:47:08;;;;;;;6.75;5.25;;;;;;;14.61;66.85;100427.41;2081479;85;32970;-66
2022/07/25 03:50:11;;;;;;;5.83;4.90;;;;;;;14.70;66.87;100421.44;2081869;85;29612;-66
2022/07/25 03:53:13;;;;;;;7.97;5.37;;;;;;;14.77;66.92;100422.78;2060697;85;27670;-66
2022/07/25 03:56:14;;;;;;;7.53;5.17;;;;;;;14.87;67.03;100412.27;2060511;86;28638;-67
2022/07/25 03:59:19;;;;;;;8.50;5.33;;;;;;;14.99;66.85;100417.30;2082113;85;31027;-67
2022/07/25 04:02:20;;;;;;;;;;;;;;;15.10;66.70;100410.73;2063413;86;33009;-67
2022/07/25 04:05:21;;;;;;;6.58;5.10;;;;;;;15.23;66.52;100411.25;2060739;85;29699;-67
2022/07/25 04:08:22;;;;;;;10.50;4.67;;;;;;;15.36;66.33;100404.03;2081859;85;27738;-66
2022/07/25 04:11:24;;;;;;;9.53;5.50;;;;;;;15.60;65.94;100400.13;2060500;86;28667;-68
2022/07/25 04:14:25;;;;;;;7.17;4.40;;;;;;;15.60;65.94;100400.13;2060885;86;31041;-67
2022/07/25 04:17:26;;;;;;;10.98;5.12;;;;;;;15.74;65.60;100402.36;2047945;86;33020;-68
2022/07/25 04:20:27;;;;;;;8.08;4.60;;;;;;;15.88;65.42;100405.48;2081818;85;29159;-67
2022/07/25 04:23:30;;;;;;;6.55;4.70;;;;;;;15.92;65.44;100386.23;2027498;87;27662;-68
2022/07/25 04:26:31;;;;;;;9.88;4.58;;;;;;;16.16;65.08;100402.16;2082083;85;28721;-68
2022/07/25 04:29:33;;;;;;;9.73;4.70;;;;;;;16.43;64.59;100393.91;2082146;85;31834;-67
2022/07/25 04:32:34;;;;;;;7.72;4.45;;;;;;;16.43;64.59;100393.91;2046072;87;32971;-68
2022/07/25 04:35:35;;;;;;;7.00;4.10;;;;;;;16.56;64.54;100393.37;2046006;87;29701;-68
2022/07/25 04:38:38;;;;;;;8.08;4.92;;;;;;;16.73;64.49;100385.00;2046282;87;28391;-67
2022/07/25 04:41:40;;;;;;;5.10;4.37;;;;;;;16.87;63.88;100382.13;2047964;86;28646;-68
2022/07/25 04:44:41;;;;;;;9.65;4.33;;;;;;;16.99;63.80;100377.67;2082085;85;31000;-67
2022/07/25 04:47:42;;;;;;;5.50;4.33;;;;;;;17.18;63.51;100381.70;2082006;85;32384;-68
2022/07/25 04:50:44;;;;;;;6.90;4.05;;;;;;;17.78;63.88;100374.34;2061103;86;30280;-67
2022/07/25 04:53:45;;;;;;;6.10;4.00;;;;;;;18.86;63.38;100363.90;2060899;86;27713;-69
2022/07/25 04:56:47;;;;;;;6.85;3.77;;;;;;;19.98;62.09;100369.75;2061074;86;29430;-66
2022/07/25 04:59:48;;;;;;;6.60;4.15;;;;;;;21.20;61.00;100361.09;2060974;86;31017;-68
2022/07/25 05:02:50;;;;;;;4.97;3.87;;;;;;;22.11;59.37;100358.42;2061127;86;32957;-67
2022/07/25 05:05:51;;;;;;;8.20;3.87;;;;;;;23.19;58.38;100356.39;2082287;85;29631;-68
2022/07/25 05:08:53;;;;;;;13.00;4.53;;;;;;;24.36;56.69;100357.00;2061217;85;27685;-68
2022/07/25 05:11:54;;;;;;;8.78;4.25;;;;;;;25.52;54.94;100360.51;2061396;86;28692;-68
2022/07/25 05:14:55;;;;;;;6.28;4.00;;;;;;;26.58;53.66;100350.77;2060979;86;31085;-69
2022/07/25 05:17:56;;;;;;;9.00;3.87;;;;;;;27.44;51.56;100346.55;2040408;86;33731;-69
2022/07/25 05:20:57;;;;;;;5.42;3.67;;;;;;;27.88;49.58;100349.91;2082098;85;30444;-68
2022/07/25 05:23:59;;;;;;;6.92;3.10;;;;;;;28.27;48.68;100345.72;2082151;85;27714;-69
2022/07/25 05:27:00;;;;;;;7.17;3.47;;;;;;;28.66;46.58;100337.62;2061213;86;28692;-67
2022/07/25 05:30:03;;;;;;;7.22;3.85;;;;;;;28.75;45.81;100332.33;2082171;84;31810;-66
2022/07/25 05:33:04;;;;;;;3.27;2.98;;;;;;;28.73;44.08;100325.28;2061032;86;33654;-68
2022/07/25 05:36:07;;;;;;;6.70;3.02;;;;;;;28.87;44.22;100328.54;2060768;86;29771;-68
2022/07/25 05:39:09;;;;;;;8.10;3.10;;;;;;;29.18;43.53;100317.69;2082279;84;27700;-68
2022/07/25 05:42:10;;;;;;;8.70;3.08;;;;;;;29.08;42.39;100315.80;2061133;86;28613;-67
2022/07/25 05:45:12;;;;;;;4.20;3.35;;;;;;;28.96;41.73;100317.69;2060916;86;31059;-69
2022/07/25 05:48:14;;;;;;;7.22;2.98;;;;;;;29.07;41.19;100312.72;2060938;86;32972;-66
2022/07/25 05:51:16;;;;;;;7.65;3.17;;;;;;;29.07;39.41;100315.48;2060942;86;30433;-67
2022/07/25 05:54:20;;;;;;;4.53;2.80;;;;;;;29.18;38.16;100312.17;2030384;86;27670;-68
2022/07/25 05:57:22;;;;;;;3.27;2.90;;;;;;;29.05;38.27;100314.27;2082057;84;29259;-67
2022/07/25 06:00:23;;;;;;;6.45;3.22;;;;;;;29.15;37.72;100318.08;2027292;87;31046;-69
2022/07/25 06:03:25;;;;;;;7.25;3.00;;;;;;;29.45;38.29;100319.34;2082126;85;32986;-69
2022/07/25 06:06:31;;;;;;;4.00;3.10;;;;;;;29.73;38.02;100314.33;2027235;87;30396;-68
2022/07/25 06:09:32;;;;;;;8.48;2.90;;;;;;;29.98;37.23;100310.58;2082634;84;27682;-67
2022/07/25 06:12:33;;;;;;;4.85;2.80;;;;;;;30.23;36.96;100313.35;2085462;84;28686;-70
2022/07/25 06:15:36;;;;;;;3.58;2.67;;;;;;;30.55;36.96;100316.48;2070615;86;31052;-71
2022/07/25 06:18:38;;;;;;;5.87;2.73;;;;;;;31.19;36.51;100312.34;2070691;86;33744;-69
2022/07/25 06:21:39;;;;;;;5.70;2.65;;;;;;;31.87;35.87;100309.02;2069811;85;29635;-69
2022/07/25 06:24:41;;;;;;;5.67;2.60;;;;;;;32.55;35.26;100305.45;2085281;84;27758;-69
2022/07/25 06:27:42;;;;;;;2.90;2.60;;;;;;;33.16;33.47;100298.45;2030672;87;29764;-68
2022/07/25 06:30:44;;;;;;;2.85;2.65;;;;;;;33.53;32.45;100299.66;2085320;85;31016;-67
2022/07/25 06:33:45;;;;;;;4.35;2.72;;;;;;;33.86;32.17;100295.68;2085320;85;33032;-65
2022/07/25 06:36:47;;;;;;;3.72;2.15;;;;;;;34.36;32.30;100287.70;2030471;87;29788;-70
2022/07/25 06:39:48;;;;;;;2.72;2.30;;;;;;;34.76;31.79;100280.21;2085534;85;27710;-70
2022/07/25 06:42:49;;;;;;;2.55;2.22;;;;;;;35.28;31.30;100282.94;2085371;84;28615;-70
2022/07/25 06:45:50;;;;;;;3.90;2.75;;;;;;;35.48;28.43;100273.41;2085440;85;30514;-70
2022/07/25 06:48:52;;;;;;;3.22;2.50;;;;;;;35.23;29.83;100271.66;2030866;86;32917;-70
2022/07/25 06:51:53;;;;;;;4.40;2.00;;;;;;;35.61;29.70;100268.97;2085309;85;30389;-72
2022/07/25 06:54:54;;;;;;;4.00;2.12;;;;;;;35.89;28.67;100265.95;2085365;85;27721;-69
2022/07/25 06:57:55;;;;;;;4.53;2.22;;;;;;;35.55;28.25;100262.44;2085459;85;28605;-71
2022/07/25 07:00:57;;;;;;;2.37;2.17;;;;;;;35.82;28.18;100257.72;2070443;85;31005;-69
2022/07/25 07:03:58;;;;;;;4.05;2.55;;;;;;;36.28;28.05;100250.89;2070416;86;33104;-71
2022/07/25 07:06:59;;;;;;;3.15;2.10;;;;;;;36.72;27.35;100252.27;2070482;86;29053;-70
2022/07/25 07:10:01;;;;;;;5.75;1.90;;;;;;;37.20;27.34;100256.45;2068893;85;27749;-71
2022/07/25 07:13:10;;;;;;;2.98;2.15;;;;;;;37.67;26.96;100245.45;2061013;86;29349;-71
2022/07/25 07:16:11;;;;;;;2.00;1.90;;;;;;;37.86;25.66;100246.53;2060656;85;31053;-70
2022/07/25 07:19:13;;;;;;;2.60;2.10;;;;;;;38.05;25.84;100238.67;2060976;86;34119;-70
2022/07/25 07:22:14;;;;;;;2.95;1.87;;;;;;;38.34;24.86;100239.00;2082043;85;30352;-69
2022/07/25 07:25:19;;;;;;;6.67;2.10;;;;;;;38.46;24.83;100232.71;2027188;87;27775;-65
2022/07/25 07:28:21;;;;;;;5.83;2.08;;;;;;;38.58;24.08;100234.78;2082675;85;28228;-69
2022/07/25 07:31:22;;;;;;;5.20;2.47;;;;;;;38.70;24.56;100226.78;2082084;85;31004;-70
2022/07/25 07:34:24;;;;;;;2.87;2.00;;;;;;;38.82;23.72;100223.78;2026963;87;33050;-69
2022/07/25 07:37:26;;;;;;;5.40;2.67;;;;;;;38.34;22.72;100224.44;2082099;85;29643;-70
2022/07/25 07:40:27;;;;;;;4.05;2.27;;;;;;;38.11;23.65;100214.40;2027355;87;27625;-71
2022/07/25 07:43:30;;;;;;;3.67;2.27;;;;;;;38.32;23.78;100213.22;2082188;85;28628;-70
2022/07/25 07:46:31;;;;;;;2.58;2.37;;;;;;;38.65;23.56;100209.94;2082046;85;31874;-71
2022/07/25 07:49:32;;;;;;;4.58;2.20;;;;;;;38.82;22.49;100202.78;2027129;87;32939;-71
2022/07/25 07:52:34;;;;;;;2.87;2.37;;;;;;;38.87;23.34;100198.66;2082010;85;29596;-71
2022/07/25 07:55:45;;;;;;;2.67;2.40;;;;;;;38.96;23.27;100201.81;2027306;87;27718;-69
2022/07/25 07:58:47;;;;;;;6.37;2.10;;;;;;;38.76;22.33;100190.70;2081968;85;28642;-65
2022/07/25 08:01:48;;;;;;;4.10;2.30;;;;;;;38.50;22.63;100191.03;2081781;85;31028;-71
2022/07/25 08:04:49;;;;;;;4.25;2.30;;;;;;;38.33;22.72;100184.96;2081768;85;32438;-65
2022/07/25 08:07:51;;;;;;;3.85;2.52;;;;;;;38.13;21.55;100182.27;2026973;87;30361;-70
2022/07/25 08:10:53;;;;;;;2.37;2.00;;;;;;;37.80;21.85;100178.52;2082806;84;27722;-71
2022/07/25 08:13:54;;;;;;;5.97;2.00;;;;;;;37.79;22.23;100181.55;2030525;86;29621;-67
2022/07/25 08:16:58;;;;;;;10.05;2.65;;;;;;;37.94;21.69;100183.73;2085050;85;31005;-72
2022/07/25 08:20:00;;;;;;;3.87;2.17;;;;;;;38.02;21.95;100181.85;2085067;85;33761;-72
2022/07/25 08:23:02;;;;;;;7.75;2.10;;;;;;;37.98;21.19;100185.73;2030423;87;53648;-71
2022/07/25 08:26:05;;;;;;;2.37;1.95;;;;;;;37.90;21.62;100176.39;2085018;85;27703;-73
2022/07/25 08:29:06;;;;;;;3.08;1.60;;;;;;;38.04;21.61;100178.80;2085640;85;28721;-72
2022/07/25 08:32:07;;;;;;;2.15;1.92;;;;;;;38.30;21.91;100173.75;2070408;86;31617;-72
2022/07/25 08:35:09;;;;;;;4.87;1.95;;;;;;;38.56;20.88;100174.01;2070037;86;33736;-71
2022/07/25 08:38:10;;;;;;;5.05;2.80;;;;;;;38.50;20.33;100174.23;2070336;86;29645;-72
2022/07/25 08:41:11;;;;;;;2.60;1.47;;;;;;;38.24;20.78;100179.00;2070544;85;27669;-72
2022/07/25 08:44:13;;;;;;;2.85;2.58;;;;;;;38.08;20.38;100170.16;2047083;86;30280;-71
2022/07/25 08:47:14;;;;;;;2.72;1.75;;;;;;;38.04;20.52;100171.25;2070277;86;30933;-71
2022/07/25 08:50:19;;;;;;;3.58;2.10;;;;;;;37.68;20.17;100163.80;2070456;85;32952;-71
2022/07/25 08:53:22;;;;;;;4.40;1.77;;;;;;;37.80;20.70;100165.07;2044499;86;29285;-69
2022/07/25 08:56:23;;;;;;;2.25;2.05;;;;;;;37.82;19.54;100165.09;2085628;84;27629;-73
2022/07/25 08:59:25;;;;;;;3.70;1.52;;;;;;;37.65;19.37;100158.73;2085440;85;28818;-72
2022/07/25 09:02:27;;;;;;;6.65;2.12;;;;;;;37.61;19.56;100145.83;2085314;84;30994;-70
2022/07/25 09:05:32;;;;;;;2.30;1.80;;;;;;;37.59;19.99;100145.81;2030413;87;32992;-73
2022/07/25 09:08:33;;;;;;;3.70;1.50;;;;;;;37.64;19.42;100141.69;2085168;85;30428;-71
2022/07/25 09:11:37;;;;;;;1.85;1.57;;;;;;;37.64;20.00;100144.48;2029231;87;27664;-73
2022/07/25 09:14:43;;;;;;;2.15;1.60;;;;;;;37.68;19.76;100147.03;2081666;85;28697;-67
2022/07/25 09:17:51;;;;;;;4.40;2.02;;;;;;;37.63;20.00;100146.42;2082093;85;31055;-71
2022/07/25 09:20:59;;;;;;;1.90;1.60;;;;;;;37.51;19.90;100136.77;2027233;87;33055;-74
2022/07/25 09:24:15;;;;;;;3.17;1.70;;;;;;;37.50;19.90;100135.08;2081006;85;29285;-68
2022/07/25 09:27:17;;;;;;;3.27;1.57;;;;;;;37.13;19.37;100132.03;2082056;85;28203;-71
2022/07/25 09:30:19;;;;;;;2.52;2.00;;;;;;;36.53;19.06;100128.31;2082052;85;28678;-73
2022/07/25 09:33:23;;;;;;;4.30;1.60;;;;;;;36.15;19.77;100125.69;2045900;87;31907;-72
2022/07/25 09:36:25;;;;;;;1.72;1.45;;;;;;;35.94;19.62;100123.02;2041736;86;32945;-65
2022/07/25 09:39:40;;;;;;;1.67;1.57;;;;;;;35.86;20.58;100124.26;2099179;84;29386;-67
2022/07/25 09:42:44;;;;;;;1.67;1.50;;;;;;;35.95;20.70;100119.16;2081505;84;27640;-65
2022/07/25 09:45:51;;;;;;;4.75;1.52;;;;;;;35.56;20.27;100121.16;2079898;85;29179;-67
2022/07/25 09:48:57;;;;;;;1.70;1.60;;;;;;;35.37;20.71;100119.08;2080203;85;31046;-61
2022/07/25 09:51:58;;;;;;;1.42;1.32;;;;;;;34.93;20.05;100108.33;2080602;85;32966;-64
2022/07/25 09:55:04;;;;;;;1.50;1.40;;;;;;;34.66;20.62;100104.09;2060486;86;29889;-62
2022/07/25 09:58:06;;;;;;;2.12;1.42;;;;;;;34.30;20.84;100098.98;2082012;85;28223;-60
2022/07/25 10:01:07;;;;;;;1.82;1.47;;;;;;;33.98;20.59;100101.22;2060844;86;28794;-64
2022/07/25 10:04:22;;;;;;;2.42;1.70;;;;;;;33.69;21.47;100092.59;2060630;86;32173;-67
2022/07/25 10:07:23;;;;;;;3.58;1.60;;;;;;;33.57;21.66;100090.63;2060831;86;32970;-62
2022/07/25 10:10:38;;;;;;;1.65;1.55;;;;;;;33.48;21.52;100085.92;2060836;86;30297;-62
2022/07/25 10:13:39;;;;;;;2.37;1.42;;;;;;;33.22;21.74;100085.69;2081879;85;27907;-61
2022/07/25 10:16:46;;;;;;;5.15;1.80;;;;;;;33.06;22.07;100082.14;2060899;86;29833;-63
2022/07/25 10:19:48;;;;;;;3.95;1.50;;;;;;;33.02;22.54;100082.59;2060835;86;31034;-69
2022/07/25 10:22:49;;;;;;;1.72;1.62;;;;;;;33.01;22.80;100079.50;2038253;86;33000;-70
2022/07/25 10:26:12;;;;;;;1.90;1.42;;;;;;;32.79;22.19;100071.30;2082042;84;29082;-62
2022/07/25 10:29:15;;;;;;;5.23;1.67;;;;;;;32.50;22.06;100069.56;2027221;87;27776;-64
2022/07/25 10:32:16;;;;;;;2.12;1.77;;;;;;;32.27;22.89;100070.47;2081873;85;29866;-68
2022/07/25 10:35:18;;;;;;;3.50;1.50;;;;;;;32.30;23.24;100060.87;2082095;85;31197;-62
2022/07/25 10:38:26;;;;;;;3.20;1.95;;;;;;;32.26;23.29;100056.33;2026871;87;34062;-62
2022/07/25 10:41:28;;;;;;;5.22;1.60;;;;;;;32.08;22.83;100057.61;2081655;85;30405;-66
2022/07/25 10:44:43;;;;;;;2.27;1.85;;;;;;;31.92;23.17;100047.91;2027122;87;28242;-62
2022/07/25 10:47:54;;;;;;;2.75;1.67;;;;;;;31.79;23.27;100040.52;2081799;85;28045;-62
2022/07/25 10:51:03;;;;;;;3.85;1.62;;;;;;;31.81;23.95;100035.09;2027678;87;31012;-63
2022/07/25 10:54:16;;;;;;;3.70;1.50;;;;;;;31.80;23.21;100034.78;2047508;86;34177;-65
2022/07/25 10:57:17;;;;;;;2.58;1.82;;;;;;;31.72;23.75;100031.42;1994760;88;29682;-62
2022/07/25 11:00:20;;;;;;;3.85;1.77;;;;;;;31.76;24.16;100018.84;2048135;86;27716;-65
2022/07/25 11:03:21;;;;;;;1.92;1.55;;;;;;;31.81;23.93;100025.92;1995361;89;29054;-62
2022/07/25 11:06:41;;;;;;;2.40;2.00;;;;;;;31.75;23.61;100019.91;2048095;86;31023;-65
2022/07/25 11:09:43;;;;;;;4.62;1.87;;;;;;;31.73;24.55;100006.81;2047460;86;33295;-64
2022/07/25 11:12:44;;;;;;;1.47;1.30;;;;;;;31.77;24.33;100004.75;2049434;86;31105;-63
2022/07/25 11:15:46;;;;;;;3.33;1.55;;;;;;;31.65;23.52;100007.34;1997964;89;27835;-63
2022/07/25 11:18:49;;;;;;;1.95;1.42;;;;;;;31.48;23.28;100004.27;2050821;86;32331;-64
2022/07/25 11:21:58;;;;;;;2.15;1.40;;;;;;;31.39;23.90;99991.74;2045189;85;31540;-63
2022/07/25 11:25:01;;;;;;;1.55;1.45;;;;;;;31.32;23.99;99997.31;2084505;85;32938;-64
2022/07/25 11:28:04;;;;;;;5.17;1.60;;;;;;;31.35;24.79;100003.80;2070341;86;35384;-63
2022/07/25 11:31:13;;;;;;;1.50;1.40;;;;;;;31.38;24.35;99988.66;2070135;86;27677;-63
2022/07/25 11:34:14;;;;;;;2.27;1.77;;;;;;;31.37;25.47;99981.42;2070472;86;28697;-64
2022/07/25 11:37:18;;;;;;;5.10;1.70;;;;;;;31.42;25.56;99975.25;2070446;85;30996;-64
2022/07/25 11:40:21;;;;;;;2.98;1.42;;;;;;;31.33;24.52;99963.03;2070508;85;32930;-65
2022/07/25 11:43:24;;;;;;;1.98;1.65;;;;;;;31.22;24.29;99959.05;2070382;86;30428;-62
2022/07/25 11:46:26;;;;;;;3.43;2.20;;;;;;;31.14;24.49;99955.16;2039570;86;27686;-60
2022/07/25 11:49:27;;;;;;;1.52;1.42;;;;;;;31.13;24.89;99952.08;2086775;85;29428;-60
2022/07/25 11:52:35;;;;;;;4.45;2.05;;;;;;;31.09;24.61;99947.19;2030635;87;31801;-61
2022/07/25 11:55:41;;;;;;;3.33;1.70;;;;;;;31.10;25.23;99944.73;2084762;85;33116;-61
2022/07/25 11:58:57;;;;;;;2.45;1.37;;;;;;;31.17;25.64;99938.64;2085429;85;29641;-63
2022/07/25 12:01:58;;;;;;;2.00;1.42;;;;;;;31.19;25.84;99938.72;2085598;85;27665;-61
2022/07/25 12:05:04;;;;;;;1.90;1.20;;;;;;;31.24;25.93;99930.30;2063762;85;28771;-61
2022/07/25 12:08:23;;;;;;;1.90;1.60;;;;;;;31.23;26.04;99922.55;2084802;84;31778;-62
2022/07/25 12:11:25;;;;;;;2.60;1.65;;;;;;;31.22;25.94;99922.23;2085280;84;32550;-62
2022/07/25 12:14:27;;;;;;;2.55;1.80;;;;;;;31.19;25.58;99917.13;2026834;87;30872;-62
2022/07/25 12:17:28;;;;;;;2.85;1.70;;;;;;;31.16;25.76;99904.60;2082063;85;27683;-64
2022/07/25 12:20:33;;;;;;;2.17;1.55;;;;;;;31.09;25.19;99909.28;2058411;85;28792;-65
2022/07/25 12:23:35;;;;;;;4.60;1.60;;;;;;;31.02;25.33;99901.57;2082001;85;31022;-63
2022/07/25 12:26:36;;;;;;;4.53;1.75;;;;;;;30.95;25.15;99886.91;2060907;86;33096;-63
2022/07/25 12:29:38;;;;;;;1.70;1.60;;;;;;;30.94;25.54;99882.45;2060700;86;30201;-61
2022/07/25 12:32:41;;;;;;;2.95;1.30;;;;;;;30.92;25.68;99887.66;2061117;86;27637;-62
2022/07/25 12:35:44;;;;;;;4.15;1.90;;;;;;;30.95;25.94;99878.61;2060662;86;29550;-61
2022/07/25 12:38:45;;;;;;;2.12;1.80;;;;;;;30.99;26.18;99872.95;2060882;86;32395;-64
2022/07/25 12:41:46;;;;;;;5.62;1.67;;;;;;;31.03;26.13;99869.52;2061007;86;33341;-62
2022/07/25 12:44:47;;;;;;;3.35;3.05;;;;;;;31.05;25.82;99870.15;2082335;85;30048;-62
2022/07/25 12:47:49;;;;;;;1.70;1.60;;;;;;;31.05;26.11;99862.37;2082250;85;27703;-65
2022/07/25 12:50:50;;;;;;;2.25;2.05;;;;;;;31.07;26.30;99869.91;2027084;87;28892;-64
2022/07/25 12:53:52;;;;;;;2.90;1.72;;;;;;;31.07;26.52;99858.33;2082272;85;31381;-61
2022/07/25 12:56:53;;;;;;;1.70;1.47;;;;;;;31.10;26.68;99854.81;2027054;87;33014;-64
2022/07/25 12:59:55;;;;;;;2.12;1.62;;;;;;;31.07;26.14;99847.26;2082417;85;30054;-63
2022/07/25 13:02:56;;;;;;;4.40;1.20;;;;;;;31.04;25.84;99853.75;2082488;85;28054;-64
2022/07/25 13:05:57;;;;;;;2.98;1.45;;;;;;;31.02;25.84;99847.62;2027225;87;29773;-64
2022/07/25 13:08:58;;;;;;;2.45;1.55;;;;;;;31.00;26.19;99842.84;2082377;85;31338;-66
2022/07/25 13:12:00;;;;;;;6.00;1.77;;;;;;;30.97;25.40;99833.05;2027865;87;33862;-64
2022/07/25 13:15:02;;;;;;;2.30;1.25;;;;;;;30.93;25.50;99830.44;2085237;85;30424;-62
2022/07/25 13:18:16;;;;;;;5.42;1.47;;;;;;;30.96;25.91;99824.98;2085558;85;27829;-63
2022/07/25 13:21:18;;;;;;;1.82;1.40;;;;;;;30.96;25.35;99820.83;2070822;86;29085;-64
2022/07/25 13:24:20;;;;;;;4.30;1.50;;;;;;;30.93;25.28;99809.69;2038535;86;32412;-66
2022/07/25 13:27:22;;;;;;;2.20;1.67;;;;;;;30.92;25.16;99796.93;2085609;85;33332;-63
2022/07/25 13:30:24;;;;;;;4.83;1.65;;;;;;;30.96;25.94;99796.77;2085651;84;29080;-61
2022/07/25 13:33:25;;;;;;;1.57;1.27;;;;;;;30.99;26.19;99784.44;2030856;87;28226;-62
2022/07/25 13:36:27;;;;;;;1.52;1.40;;;;;;;30.98;26.17;99773.89;2085261;85;30053;-64
2022/07/25 13:39:28;;;;;;;2.00;1.40;;;;;;;31.00;25.85;99779.21;2085588;85;31707;-64
2022/07/25 13:42:29;;;;;;;2.15;1.80;;;;;;;31.00;26.04;99774.52;2030922;86;33321;-61
2022/07/25 13:45:31;;;;;;;1.65;1.30;;;;;;;31.01;26.05;99777.59;2085192;85;30825;-62
2022/07/25 13:48:34;;;;;;;5.15;1.25;;;;;;;30.99;25.79;99766.45;2030776;87;27700;-62
2022/07/25 13:51:35;;;;;;;3.27;1.25;;;;;;;30.98;26.24;99766.14;2085351;85;29870;-61
2022/07/25 13:54:36;;;;;;;6.20;1.50;;;;;;;30.95;26.21;99760.49;2030634;87;31170;-61
2022/07/25 13:57:39;;;;;;;2.12;1.85;;;;;;;30.92;26.15;99755.44;2085305;85;33089;-61
2022/07/25 14:00:40;;;;;;;2.55;1.50;;;;;;;30.93;26.47;99757.13;2085336;85;29222;-62
2022/07/25 14:03:41;;;;;;;3.15;1.50;;;;;;;30.96;26.26;99753.06;2070526;86;27681;-62
2022/07/25 14:06:43;;;;;;;3.17;2.60;;;;;;;30.95;25.80;99754.12;2070987;86;29898;-62
2022/07/25 14:09:44;;;;;;;9.98;1.80;;;;;;;30.93;26.40;99744.69;2070507;86;32216;-62
2022/07/25 14:12:45;;;;;;;1.90;1.45;;;;;;;30.93;26.15;99737.77;2070498;84;32939;-61